Time;durP1;ratioP1;P1;durP2;ratioP2;P2;SDS_P1;SDS_P2;PMS_P1;PMS_P2;Temp;Humidity;BMP_temperature;BMP_pressure;BME280_temperature;BME280_humidity;BME280_pressure;Samples;Min_cycle;Max_cycle;Signal;HPM_P1;HPM_P2
2024/03/31 00:01:17;;;;;;;;;;;;;;;;;;107187;1253;62093;-81
2024/03/31 00:04:02;;;;;;;;;;;;;;;;;;107151;1254;62261;-81
2024/03/31 00:06:28;;;;;;;;;;;;;;;;;;107244;1250;62948;-79
2024/03/31 00:08:54;;;;;;;;;;;;;;;;;;107188;1253;61951;-79
2024/03/31 00:11:20;;;;;;;;;;;;;;;;;;107146;1250;62145;-81
2024/03/31 00:13:46;;;;;;;;;;;;;;;;;;107205;1250;62138;-81
2024/03/31 00:16:12;;;;;;;;;;;;;;;;;;107259;1250;62151;-81
2024/03/31 00:18:39;;;;;;;;;;;;;;;;;;107236;1254;62112;-81
2024/03/31 00:21:05;;;;;;;;;;;;;;;;;;107194;1249;62173;-79
2024/03/31 00:23:31;;;;;;;;;;;;;;;;;;107195;1253;62084;-81
2024/03/31 00:25:57;;;;;;;;;;;;;;;;;;107149;1251;62063;-80
2024/03/31 00:28:23;;;;;;;;;;;;;;;;;;107142;1250;62222;-81
2024/03/31 00:30:49;;;;;;;;;;;;;;;;;;107152;1250;62191;-81
2024/03/31 00:33:15;;;;;;;;;;;;;;;;;;107189;1250;62712;-79
2024/03/31 00:35:42;;;;;;;;;;;;;;;;;;107190;1250;62199;-81
2024/03/31 00:38:08;;;;;;;;;;;;;;;;;;107167;1250;62147;-79
2024/03/31 00:40:34;;;;;;;;;;;;;;;;;;107162;1254;62069;-81
2024/03/31 00:43:00;;;;;;;;;;;;;;;;;;107277;1250;62084;-80
2024/03/31 00:45:26;;;;;;;;;;;;;;;;;;107230;1250;62182;-80
2024/03/31 00:47:53;;;;;;;;;;;;;;;;;;107243;1250;62052;-79
2024/03/31 00:50:19;;;;;;;;;;;;;;;;;;107248;1249;62001;-79
2024/03/31 00:52:45;;;;;;;;;;;;;;;;;;107220;1254;62077;-79
2024/03/31 00:55:11;;;;;;;;;;;;;;;;;;107209;1249;62083;-78
2024/03/31 00:57:37;;;;;;;;;;;;;;;;;;107152;1249;62087;-79
2024/03/31 01:00:04;;;;;;;;;;;;;;;;;;107197;1250;62150;-81
2024/03/31 01:02:30;;;;;;;;;;;;;;;;;;107201;1250;62233;-81
2024/03/31 01:04:57;;;;;;;;;;;;;;;;;;107197;1250;61969;-79
2024/03/31 01:07:23;;;;;;;;;;;;;;;;;;107213;1250;62539;-81
2024/03/31 01:09:49;;;;;;;;;;;;;;;;;;107150;1250;62142;-82
2024/03/31 01:12:15;;;;;;;;;;;;;;;;;;107147;1250;62840;-81
2024/03/31 01:14:41;;;;;;;;;;;;;;;;;;107234;1250;62156;-81
2024/03/31 01:17:07;;;;;;;;;;;;;;;;;;107241;1250;62064;-81
2024/03/31 01:19:33;;;;;;;;;;;;;;;;;;107233;1250;62070;-79
2024/03/31 01:21:59;;;;;;;;;;;;;;;;;;107257;1249;62118;-81
2024/03/31 01:24:26;;;;;;;;;;;;;;;;;;107269;1250;62083;-81
2024/03/31 01:26:52;;;;;;;;;;;;;;;;;;107242;1254;62143;-81
2024/03/31 01:29:18;;;;;;;;;;;;;;;;;;107212;1249;64164;-81
2024/03/31 01:31:44;;;;;;;;;;;;;;;;;;107203;1250;62008;-79
2024/03/31 01:34:11;;;;;;;;;;;;;;;;;;107205;1253;62148;-82
2024/03/31 01:36:37;;;;;;;;;;;;;;;;;;107864;1250;60576;-81
2024/03/31 01:39:03;;;;;;;;;;;;;;;;;;108441;1250;62092;-81
2024/03/31 01:41:29;;;;;;;;;;;;;;;;;;107215;1253;63265;-79
2024/03/31 01:43:56;;;;;;;;;;;;;;;;;;107180;1250;62558;-79
2024/03/31 01:46:22;;;;;;;;;;;;;;;;;;107191;1254;62125;-79
2024/03/31 01:48:48;;;;;;;;;;;;;;;;;;107215;1249;62167;-81
2024/03/31 01:51:14;;;;;;;;;;;;;;;;;;107217;1249;62076;-79
2024/03/31 01:53:41;;;;;;;;;;;;;;;;;;107190;1254;62067;-79
2024/03/31 01:56:07;;;;;;;;;;;;;;;;;;107181;1250;62172;-81
2024/03/31 01:58:33;;;;;;;;;;;;;;;;;;107215;1249;62525;-79
2024/03/31 02:00:59;;;;;;;;;;;;;;;;;;107213;1250;62130;-79
2024/03/31 02:03:25;;;;;;;;;;;;;;;;;;107225;1250;60020;-81
2024/03/31 02:05:51;;;;;;;;;;;;;;;;;;107214;1250;61904;-80
2024/03/31 02:08:18;;;;;;;;;;;;;;;;;;107186;1250;62067;-78
2024/03/31 02:10:44;;;;;;;;;;;;;;;;;;107181;1250;62157;-78
2024/03/31 02:13:10;;;;;;;;;;;;;;;;;;107213;1254;62040;-80
2024/03/31 02:15:36;;;;;;;;;;;;;;;;;;107229;1250;62621;-78
2024/03/31 02:18:02;;;;;;;;;;;;;;;;;;106571;1250;62151;-79
2024/03/31 02:20:28;;;;;;;;;;;;;;;;;;106520;1254;62183;-80
2024/03/31 02:22:54;;;;;;;;;;;;;;;;;;106524;1250;62070;-78
2024/03/31 02:25:21;;;;;;;;;;;;;;;;;;106533;1250;62067;-78
2024/03/31 02:27:47;;;;;;;;;;;;;;;;;;106559;1251;62154;-80
2024/03/31 02:30:13;;;;;;;;;;;;;;;;;;107160;1250;62050;-81
2024/03/31 02:32:39;;;;;;;;;;;;;;;;;;107189;1250;62074;-80
2024/03/31 02:35:05;;;;;;;;;;;;;;;;;;107198;1250;62028;-80
2024/03/31 02:37:31;;;;;;;;;;;;;;;;;;107147;1249;62061;-81
2024/03/31 02:39:57;;;;;;;;;;;;;;;;;;107131;1250;62163;-79
2024/03/31 02:42:24;;;;;;;;;;;;;;;;;;106582;1250;62180;-79
2024/03/31 02:44:50;;;;;;;;;;;;;;;;;;106569;1249;62151;-79
2024/03/31 02:47:16;;;;;;;;;;;;;;;;;;106553;1250;62061;-80
2024/03/31 02:49:42;;;;;;;;;;;;;;;;;;107137;1250;62066;-81
2024/03/31 02:52:09;;;;;;;;;;;;;;;;;;107161;1250;62128;-81
2024/03/31 02:54:35;;;;;;;;;;;;;;;;;;107130;1250;62088;-79
2024/03/31 02:57:01;;;;;;;;;;;;;;;;;;107175;1251;62332;-81
2024/03/31 02:59:27;;;;;;;;;;;;;;;;;;107182;1250;62906;-80
2024/03/31 03:01:53;;;;;;;;;;;;;;;;;;107264;1250;61901;-79
2024/03/31 03:04:19;;;;;;;;;;;;;;;;;;106536;1249;62157;-79
2024/03/31 03:06:46;;;;;;;;;;;;;;;;;;106520;1250;62122;-80
2024/03/31 03:09:12;;;;;;;;;;;;;;;;;;107180;1253;60100;-79
2024/03/31 03:11:38;;;;;;;;;;;;;;;;;;107206;1250;62052;-81
2024/03/31 03:14:04;;;;;;;;;;;;;;;;;;107266;1251;61969;-80
2024/03/31 03:16:30;;;;;;;;;;;;;;;;;;107198;1253;62146;-79
2024/03/31 03:18:56;;;;;;;;;;;;;;;;;;107168;1250;62039;-81
2024/03/31 03:21:22;;;;;;;;;;;;;;;;;;107299;1253;62149;-81
2024/03/31 03:23:48;;;;;;;;;;;;;;;;;;107193;1250;62051;-80
2024/03/31 03:26:15;;;;;;;;;;;;;;;;;;107194;1249;62682;-81
2024/03/31 03:28:41;;;;;;;;;;;;;;;;;;107302;1250;62128;-82
2024/03/31 03:31:07;;;;;;;;;;;;;;;;;;107097;1250;62145;-81
2024/03/31 03:33:33;;;;;;;;;;;;;;;;;;107219;1250;63117;-82
2024/03/31 03:36:00;;;;;;;;;;;;;;;;;;107085;1250;62152;-81
2024/03/31 03:38:26;;;;;;;;;;;;;;;;;;107141;1251;62024;-79
2024/03/31 03:40:52;;;;;;;;;;;;;;;;;;107156;1250;62140;-81
2024/03/31 03:43:18;;;;;;;;;;;;;;;;;;107145;1250;62087;-79
2024/03/31 03:45:44;;;;;;;;;;;;;;;;;;107197;1251;61966;-79
2024/03/31 03:48:10;;;;;;;;;;;;;;;;;;107200;1251;61927;-79
2024/03/31 03:50:37;;;;;;;;;;;;;;;;;;107168;1250;64164;-79
2024/03/31 03:53:03;;;;;;;;;;;;;;;;;;107201;1254;62141;-81
2024/03/31 03:55:29;;;;;;;;;;;;;;;;;;107311;1254;62023;-81
2024/03/31 03:57:55;;;;;;;;;;;;;;;;;;107186;1250;62026;-79
2024/03/31 04:00:21;;;;;;;;;;;;;;;;;;107213;1250;62251;-81
2024/03/31 04:02:47;;;;;;;;;;;;;;;;;;107187;1250;62042;-81
2024/03/31 04:05:13;;;;;;;;;;;;;;;;;;107241;1250;62067;-81
2024/03/31 04:07:39;;;;;;;;;;;;;;;;;;107208;1250;62099;-81
2024/03/31 04:10:06;;;;;;;;;;;;;;;;;;107278;1249;62168;-79
2024/03/31 04:12:32;;;;;;;;;;;;;;;;;;107242;1251;63178;-79
2024/03/31 04:14:58;;;;;;;;;;;;;;;;;;107381;1250;62199;-79
2024/03/31 04:17:24;;;;;;;;;;;;;;;;;;109645;1250;59605;-79
2024/03/31 04:19:50;;;;;;;;;;;;;;;;;;109663;1250;59990;-81
2024/03/31 04:22:16;;;;;;;;;;;;;;;;;;109708;1250;59840;-81
2024/03/31 04:24:42;;;;;;;;;;;;;;;;;;109670;1249;59959;-79
2024/03/31 04:27:09;;;;;;;;;;;;;;;;;;109667;1250;59723;-79
2024/03/31 04:29:35;;;;;;;;;;;;;;;;;;108488;1253;62147;-81
2024/03/31 04:32:01;;;;;;;;;;;;;;;;;;107192;1253;62815;-79
2024/03/31 04:34:30;;;;;;;;;;;;;;;;;;107097;1251;62064;-81
2024/03/31 04:36:56;;;;;;;;;;;;;;;;;;107196;1253;61937;-79
2024/03/31 04:39:24;;;;;;;;;;;;;;;;;;107235;1251;62149;-80
2024/03/31 04:41:50;;;;;;;;;;;;;;;;;;107284;1250;62708;-79
2024/03/31 04:44:16;;;;;;;;;;;;;;;;;;107188;1256;62217;-81
2024/03/31 04:46:44;;;;;;;;;;;;;;;;;;107201;1250;62227;-79
2024/03/31 04:49:10;;;;;;;;;;;;;;;;;;107135;1251;62132;-78
2024/03/31 04:51:36;;;;;;;;;;;;;;;;;;107194;1250;62111;-79
2024/03/31 04:54:02;;;;;;;;;;;;;;;;;;107189;1250;62152;-79
2024/03/31 04:56:29;;;;;;;;;;;;;;;;;;106547;1250;62096;-81
2024/03/31 04:58:55;;;;;;;;;;;;;;;;;;107183;1250;62165;-81
2024/03/31 05:01:21;;;;;;;;;;;;;;;;;;107159;1250;62144;-79
2024/03/31 05:03:47;;;;;;;;;;;;;;;;;;107199;1250;60247;-81
2024/03/31 05:06:13;;;;;;;;;;;;;;;;;;107194;1254;62159;-79
2024/03/31 05:08:39;;;;;;;;;;;;;;;;;;106567;1250;62178;-79
2024/03/31 05:11:06;;;;;;;;;;;;;;;;;;109709;1250;59736;-81
2024/03/31 05:13:32;;;;;;;;;;;;;;;;;;109637;1250;59677;-81
2024/03/31 05:15:58;;;;;;;;;;;;;;;;;;109678;1250;59630;-81
2024/03/31 05:18:25;;;;;;;;;;;;;;;;;;108826;1250;61000;-81
2024/03/31 05:20:51;;;;;;;;;;;;;;;;;;107185;1250;62141;-79
2024/03/31 05:23:17;;;;;;;;;;;;;;;;;;107232;1255;62138;-79
2024/03/31 05:25:43;;;;;;;;;;;;;;;;;;106567;1250;62058;-81
2024/03/31 05:28:09;;;;;;;;;;;;;;;;;;107193;1250;62142;-79
2024/03/31 05:30:35;;;;;;;;;;;;;;;;;;107137;1250;60682;-81
2024/03/31 05:33:02;;;;;;;;;;;;;;;;;;107210;1250;62027;-79
2024/03/31 05:35:28;;;;;;;;;;;;;;;;;;107165;1255;62563;-79
2024/03/31 05:37:54;;;;;;;;;;;;;;;;;;107167;1250;62106;-81
2024/03/31 05:40:20;;;;;;;;;;;;;;;;;;107247;1250;62369;-79
2024/03/31 05:42:46;;;;;;;;;;;;;;;;;;107185;1253;62990;-81
2024/03/31 05:45:12;;;;;;;;;;;;;;;;;;107200;1250;62143;-81
2024/03/31 05:47:39;;;;;;;;;;;;;;;;;;107146;1250;62147;-80
2024/03/31 05:50:06;;;;;;;;;;;;;;;;;;107145;1250;62152;-80
2024/03/31 05:52:32;;;;;;;;;;;;;;;;;;107167;1254;62127;-81
2024/03/31 05:54:58;;;;;;;;;;;;;;;;;;107148;1251;62074;-81
2024/03/31 05:57:24;;;;;;;;;;;;;;;;;;107191;1250;62119;-81
2024/03/31 05:59:50;;;;;;;;;;;;;;;;;;107141;1254;63093;-80
2024/03/31 06:02:17;;;;;;;;;;;;;;;;;;107103;1253;62079;-78
2024/03/31 06:04:43;;;;;;;;;;;;;;;;;;107157;1250;62143;-79
2024/03/31 06:07:09;;;;;;;;;;;;;;;;;;107142;1254;62190;-79
2024/03/31 06:09:35;;;;;;;;;;;;;;;;;;107035;1250;188996;-81
2024/03/31 06:12:01;;;;;;;;;;;;;;;;;;107192;1254;61962;-80
2024/03/31 06:14:27;;;;;;;;;;;;;;;;;;107207;1254;62121;-81
2024/03/31 06:16:53;;;;;;;;;;;;;;;;;;107227;1251;62098;-79
2024/03/31 06:19:19;;;;;;;;;;;;;;;;;;107195;1253;62071;-80
2024/03/31 06:21:46;;;;;;;;;;;;;;;;;;107174;1254;62032;-79
2024/03/31 06:24:12;;;;;;;;;;;;;;;;;;107183;1256;62086;-79
2024/03/31 06:26:38;;;;;;;;;;;;;;;;;;107141;1253;62031;-79
2024/03/31 06:29:04;;;;;;;;;;;;;;;;;;107172;1250;62033;-79
2024/03/31 06:31:30;;;;;;;;;;;;;;;;;;107191;1253;62124;-78
2024/03/31 06:33:58;;;;;;;;;;;;;;;;;;107173;1250;61969;-79
2024/03/31 06:36:24;;;;;;;;;;;;;;;;;;107159;1256;62090;-79
2024/03/31 06:38:50;;;;;;;;;;;;;;;;;;107187;1249;62133;-80
2024/03/31 06:41:17;;;;;;;;;;;;;;;;;;107152;1250;62096;-79
2024/03/31 06:43:44;;;;;;;;;;;;;;;;;;107178;1250;62155;-81
2024/03/31 06:46:10;;;;;;;;;;;;;;;;;;107219;1250;62147;-81
2024/03/31 06:48:37;;;;;;;;;;;;;;;;;;107163;1253;63203;-79
2024/03/31 06:51:03;;;;;;;;;;;;;;;;;;107201;1254;62089;-82
2024/03/31 06:53:29;;;;;;;;;;;;;;;;;;107194;1251;62061;-81
2024/03/31 06:55:55;;;;;;;;;;;;;;;;;;107145;1256;62161;-80
2024/03/31 06:58:21;;;;;;;;;;;;;;;;;;107245;1250;62144;-81
2024/03/31 07:00:48;;;;;;;;;;;;;;;;;;107182;1254;62034;-81
2024/03/31 07:03:14;;;;;;;;;;;;;;;;;;107161;1250;62475;-81
2024/03/31 07:05:40;;;;;;;;;;;;;;;;;;107180;1250;60634;-80
2024/03/31 07:08:06;;;;;;;;;;;;;;;;;;107175;1250;62622;-81
2024/03/31 07:10:32;;;;;;;;;;;;;;;;;;107141;1251;62071;-81
2024/03/31 07:12:59;;;;;;;;;;;;;;;;;;108378;1250;63125;-79
2024/03/31 07:15:25;;;;;;;;;;;;;;;;;;107132;1250;62099;-81
2024/03/31 07:17:51;;;;;;;;;;;;;;;;;;107178;1251;62078;-80
2024/03/31 07:20:17;;;;;;;;;;;;;;;;;;107126;1251;62057;-82
2024/03/31 07:22:43;;;;;;;;;;;;;;;;;;107142;1250;62119;-82
2024/03/31 07:25:09;;;;;;;;;;;;;;;;;;107201;1250;62550;-81
2024/03/31 07:27:36;;;;;;;;;;;;;;;;;;107184;1250;62135;-82
2024/03/31 07:30:02;;;;;;;;;;;;;;;;;;107206;1254;62131;-82
2024/03/31 07:32:28;;;;;;;;;;;;;;;;;;107278;1254;62143;-78
2024/03/31 07:34:55;;;;;;;;;;;;;;;;;;106587;1250;62234;-78
2024/03/31 07:37:21;;;;;;;;;;;;;;;;;;106575;1256;63151;-78
2024/03/31 07:39:47;;;;;;;;;;;;;;;;;;106642;1253;62493;-81
2024/03/31 07:42:13;;;;;;;;;;;;;;;;;;106593;1253;62052;-81
2024/03/31 07:44:39;;;;;;;;;;;;;;;;;;107233;1250;62703;-80
2024/03/31 07:47:06;;;;;;;;;;;;;;;;;;107208;1253;63497;-79
2024/03/31 07:49:32;;;;;;;;;;;;;;;;;;107219;1250;62129;-81
2024/03/31 07:51:58;;;;;;;;;;;;;;;;;;107264;1249;62154;-78
2024/03/31 07:54:24;;;;;;;;;;;;;;;;;;107319;1251;62026;-81
2024/03/31 07:56:50;;;;;;;;;;;;;;;;;;107338;1256;62164;-79
2024/03/31 07:59:16;;;;;;;;;;;;;;;;;;107336;1250;61505;-81
2024/03/31 08:01:42;;;;;;;;;;;;;;;;;;107295;1250;62102;-80
2024/03/31 08:04:09;;;;;;;;;;;;;;;;;;107284;1253;62091;-81
2024/03/31 08:06:35;;;;;;;;;;;;;;;;;;107220;1251;62074;-81
2024/03/31 08:09:02;;;;;;;;;;;;;;;;;;107261;1253;62060;-78
2024/03/31 08:11:28;;;;;;;;;;;;;;;;;;108618;1254;62224;-80
2024/03/31 08:13:54;;;;;;;;;;;;;;;;;;108270;1250;61946;-81
2024/03/31 08:16:20;;;;;;;;;;;;;;;;;;107940;1253;62139;-81
2024/03/31 08:18:46;;;;;;;;;;;;;;;;;;107349;1250;61965;-81
2024/03/31 08:21:13;;;;;;;;;;;;;;;;;;107219;1253;62159;-81
2024/03/31 08:23:39;;;;;;;;;;;;;;;;;;107140;1250;63989;-80
2024/03/31 08:26:05;;;;;;;;;;;;;;;;;;107181;1250;62167;-81
2024/03/31 08:28:31;;;;;;;;;;;;;;;;;;107227;1250;62056;-79
2024/03/31 08:30:57;;;;;;;;;;;;;;;;;;107125;1250;62060;-81
2024/03/31 08:33:23;;;;;;;;;;;;;;;;;;107182;1256;61954;-81
2024/03/31 08:35:49;;;;;;;;;;;;;;;;;;107177;1254;62106;-79
2024/03/31 08:38:16;;;;;;;;;;;;;;;;;;107216;1256;62157;-81
2024/03/31 08:40:42;;;;;;;;;;;;;;;;;;107231;1250;62787;-81
2024/03/31 08:43:08;;;;;;;;;;;;;;;;;;109322;1253;59834;-80
2024/03/31 08:45:34;;;;;;;;;;;;;;;;;;109659;1250;59708;-81
2024/03/31 08:48:01;;;;;;;;;;;;;;;;;;109665;1250;59939;-80
2024/03/31 08:50:27;;;;;;;;;;;;;;;;;;109725;1250;59678;-80
2024/03/31 08:52:53;;;;;;;;;;;;;;;;;;109686;1249;59631;-81
2024/03/31 08:55:19;;;;;;;;;;;;;;;;;;109699;1251;59681;-80
2024/03/31 08:57:45;;;;;;;;;;;;;;;;;;109658;1249;59747;-80
2024/03/31 09:00:11;;;;;;;;;;;;;;;;;;109662;1249;60042;-81
2024/03/31 09:02:38;;;;;;;;;;;;;;;;;;108435;1253;62163;-80
2024/03/31 09:05:04;;;;;;;;;;;;;;;;;;107159;1253;62547;-81
2024/03/31 09:07:35;;;;;;;;;;;;;;;;;;107250;1254;61956;-82
2024/03/31 09:10:01;;;;;;;;;;;;;;;;;;107219;1250;62150;-79
2024/03/31 09:12:27;;;;;;;;;;;;;;;;;;107209;1254;62064;-80
2024/03/31 09:14:53;;;;;;;;;;;;;;;;;;107297;1254;62823;-80
2024/03/31 09:17:19;;;;;;;;;;;;;;;;;;107279;1250;62104;-79
2024/03/31 09:19:45;;;;;;;;;;;;;;;;;;107271;1253;62032;-82
2024/03/31 09:22:12;;;;;;;;;;;;;;;;;;107229;1250;62073;-79
2024/03/31 09:24:38;;;;;;;;;;;;;;;;;;107189;1253;62052;-79
2024/03/31 09:27:04;;;;;;;;;;;;;;;;;;107175;1256;62459;-79
2024/03/31 09:29:30;;;;;;;;;;;;;;;;;;107200;1253;62074;-79
2024/03/31 09:31:56;;;;;;;;;;;;;;;;;;107181;1250;62128;-81
2024/03/31 09:34:23;;;;;;;;;;;;;;;;;;107187;1251;62042;-79
2024/03/31 09:36:49;;;;;;;;;;;;;;;;;;107277;1255;62069;-81
2024/03/31 09:39:15;;;;;;;;;;;;;;;;;;107217;1249;62139;-79
2024/03/31 09:41:42;;;;;;;;;;;;;;;;;;106552;1251;62063;-79
2024/03/31 09:44:08;;;;;;;;;;;;;;;;;;106587;1264;62169;-81
2024/03/31 09:46:34;;;;;;;;;;;;;;;;;;107152;1251;62157;-79
2024/03/31 09:49:00;;;;;;;;;;;;;;;;;;107154;1254;61942;-79
2024/03/31 09:51:26;;;;;;;;;;;;;;;;;;107172;1254;63184;-79
2024/03/31 09:53:52;;;;;;;;;;;;;;;;;;107164;1255;62146;-81
2024/03/31 09:56:18;;;;;;;;;;;;;;;;;;107152;1250;62116;-80
2024/03/31 09:58:45;;;;;;;;;;;;;;;;;;107256;1251;62077;-79
2024/03/31 10:01:11;;;;;;;;;;;;;;;;;;107190;1251;62048;-81
2024/03/31 10:03:37;;;;;;;;;;;;;;;;;;107229;1251;62145;-79
2024/03/31 10:06:03;;;;;;;;;;;;;;;;;;107225;1250;62148;-81
2024/03/31 10:08:30;;;;;;;;;;;;;;;;;;107200;1256;62070;-79
2024/03/31 10:10:56;;;;;;;;;;;;;;;;;;107204;1254;61968;-79
2024/03/31 10:13:22;;;;;;;;;;;;;;;;;;107225;1250;62153;-79
2024/03/31 10:15:48;;;;;;;;;;;;;;;;;;107242;1252;62215;-81
2024/03/31 10:18:14;;;;;;;;;;;;;;;;;;107203;1254;62169;-81
2024/03/31 10:20:40;;;;;;;;;;;;;;;;;;107205;1251;62003;-81
2024/03/31 10:23:06;;;;;;;;;;;;;;;;;;107215;1253;62595;-81
2024/03/31 10:25:33;;;;;;;;;;;;;;;;;;107207;1251;61945;-79
2024/03/31 10:27:59;;;;;;;;;;;;;;;;;;107218;1253;61932;-79
2024/03/31 10:30:27;;;;;;;;;;;;;;;;;;107212;1251;62140;-79
2024/03/31 10:32:53;;;;;;;;;;;;;;;;;;107158;1253;62070;-80
2024/03/31 10:35:19;;;;;;;;;;;;;;;;;;107193;1253;62022;-81
2024/03/31 10:37:46;;;;;;;;;;;;;;;;;;107234;1253;62154;-79
2024/03/31 10:40:12;;;;;;;;;;;;;;;;;;107201;1251;62086;-79
2024/03/31 10:42:38;;;;;;;;;;;;;;;;;;107261;1251;60624;-81
2024/03/31 10:45:04;;;;;;;;;;;;;;;;;;107207;1253;62152;-80
2024/03/31 10:47:30;;;;;;;;;;;;;;;;;;107265;1249;62048;-81
2024/03/31 10:49:56;;;;;;;;;;;;;;;;;;107354;1253;62222;-79
2024/03/31 10:52:24;;;;;;;;;;;;;;;;;;107177;1251;62046;-80
2024/03/31 10:54:51;;;;;;;;;;;;;;;;;;107134;1255;62032;-81
2024/03/31 10:57:17;;;;;;;;;;;;;;;;;;107182;1254;62029;-80
2024/03/31 10:59:46;;;;;;;;;;;;;;;;;;107150;1254;62213;-79
2024/03/31 11:02:12;;;;;;;;;;;;;;;;;;107118;1251;62045;-81
2024/03/31 11:04:38;;;;;;;;;;;;;;;;;;107152;1251;62086;-81
2024/03/31 11:07:04;;;;;;;;;;;;;;;;;;107122;1251;62093;-81
2024/03/31 11:09:30;;;;;;;;;;;;;;;;;;107154;1251;62019;-80
2024/03/31 11:11:56;;;;;;;;;;;;;;;;;;107162;1253;62080;-79
2024/03/31 11:14:23;;;;;;;;;;;;;;;;;;107249;1252;62174;-79
2024/03/31 11:16:49;;;;;;;;;;;;;;;;;;107184;1250;61969;-80
2024/03/31 11:19:15;;;;;;;;;;;;;;;;;;107207;1251;62128;-81
2024/03/31 11:21:41;;;;;;;;;;;;;;;;;;107250;1253;62156;-80
2024/03/31 11:24:07;;;;;;;;;;;;;;;;;;107226;1251;62419;-81
2024/03/31 11:26:33;;;;;;;;;;;;;;;;;;107251;1251;62031;-79
2024/03/31 11:29:00;;;;;;;;;;;;;;;;;;107172;1253;62061;-81
2024/03/31 11:31:26;;;;;;;;;;;;;;;;;;107264;1254;62108;-81
2024/03/31 11:33:52;;;;;;;;;;;;;;;;;;107188;1253;62139;-81
2024/03/31 11:36:18;;;;;;;;;;;;;;;;;;107187;1251;62034;-79
2024/03/31 11:38:44;;;;;;;;;;;;;;;;;;107241;1251;62111;-79
2024/03/31 11:41:11;;;;;;;;;;;;;;;;;;107196;1250;62248;-81
2024/03/31 11:43:37;;;;;;;;;;;;;;;;;;107243;1251;62150;-81
2024/03/31 11:46:03;;;;;;;;;;;;;;;;;;107173;1253;62145;-81
2024/03/31 11:48:29;;;;;;;;;;;;;;;;;;107205;1251;62124;-81
2024/03/31 11:50:55;;;;;;;;;;;;;;;;;;107204;1251;62148;-81
2024/03/31 11:53:21;;;;;;;;;;;;;;;;;;107168;1250;62029;-81
2024/03/31 11:55:48;;;;;;;;;;;;;;;;;;107177;1251;62041;-81
2024/03/31 11:58:14;;;;;;;;;;;;;;;;;;107172;1253;62138;-81
2024/03/31 12:00:40;;;;;;;;;;;;;;;;;;107170;1251;62067;-81
2024/03/31 12:03:06;;;;;;;;;;;;;;;;;;107130;1250;62067;-81
2024/03/31 12:05:32;;;;;;;;;;;;;;;;;;107194;1253;61962;-81
2024/03/31 12:07:58;;;;;;;;;;;;;;;;;;107174;1253;62499;-79
2024/03/31 12:10:24;;;;;;;;;;;;;;;;;;107183;1254;62173;-81
2024/03/31 12:12:51;;;;;;;;;;;;;;;;;;107207;1251;62082;-79
2024/03/31 12:15:19;;;;;;;;;;;;;;;;;;107211;1255;62156;-79
2024/03/31 12:17:45;;;;;;;;;;;;;;;;;;107155;1250;62076;-81
2024/03/31 12:20:11;;;;;;;;;;;;;;;;;;107194;1250;62088;-79
2024/03/31 12:22:37;;;;;;;;;;;;;;;;;;107135;1251;62073;-81
2024/03/31 12:25:03;;;;;;;;;;;;;;;;;;107155;1251;62153;-79
2024/03/31 12:27:29;;;;;;;;;;;;;;;;;;107220;1251;62153;-81
2024/03/31 12:29:56;;;;;;;;;;;;;;;;;;107184;1254;62019;-79
2024/03/31 12:32:22;;;;;;;;;;;;;;;;;;107230;1252;62069;-81
2024/03/31 12:34:48;;;;;;;;;;;;;;;;;;107229;1251;64316;-81
2024/03/31 12:37:15;;;;;;;;;;;;;;;;;;107175;1251;62076;-81
2024/03/31 12:39:41;;;;;;;;;;;;;;;;;;107264;1253;62044;-79
2024/03/31 12:42:07;;;;;;;;;;;;;;;;;;107195;1251;62113;-81
2024/03/31 12:44:33;;;;;;;;;;;;;;;;;;107202;1251;62064;-81
2024/03/31 12:46:59;;;;;;;;;;;;;;;;;;107147;1251;62126;-81
2024/03/31 12:49:26;;;;;;;;;;;;;;;;;;109283;1250;61897;-81
2024/03/31 12:51:53;;;;;;;;;;;;;;;;;;107464;1251;61719;-80
2024/03/31 12:54:20;;;;;;;;;;;;;;;;;;107230;1251;61965;-81
2024/03/31 12:56:46;;;;;;;;;;;;;;;;;;107216;1250;62900;-79
2024/03/31 12:59:12;;;;;;;;;;;;;;;;;;107175;1251;62157;-81
2024/03/31 13:01:38;;;;;;;;;;;;;;;;;;107255;1253;61922;-81
2024/03/31 13:04:05;;;;;;;;;;;;;;;;;;107231;1250;62153;-81
2024/03/31 13:06:31;;;;;;;;;;;;;;;;;;107313;1251;62096;-81
2024/03/31 13:08:57;;;;;;;;;;;;;;;;;;107250;1251;62146;-81
2024/03/31 13:11:23;;;;;;;;;;;;;;;;;;107230;1253;62066;-79
2024/03/31 13:13:49;;;;;;;;;;;;;;;;;;107259;1251;62221;-80
2024/03/31 13:16:16;;;;;;;;;;;;;;;;;;107195;1251;62155;-79
2024/03/31 13:18:43;;;;;;;;;;;;;;;;;;107284;1253;62114;-79
2024/03/31 13:21:09;;;;;;;;;;;;;;;;;;107158;1251;62140;-81
2024/03/31 13:23:36;;;;;;;;;;;;;;;;;;107215;1252;62156;-81
2024/03/31 13:26:03;;;;;;;;;;;;;;;;;;107134;1251;62121;-80
2024/03/31 13:28:29;;;;;;;;;;;;;;;;;;107132;1251;62084;-81
2024/03/31 13:30:55;;;;;;;;;;;;;;;;;;107190;1249;60095;-81
2024/03/31 13:33:21;;;;;;;;;;;;;;;;;;107147;1249;62067;-81
2024/03/31 13:35:47;;;;;;;;;;;;;;;;;;107140;1251;62079;-79
2024/03/31 13:38:13;;;;;;;;;;;;;;;;;;107219;1251;62127;-80
2024/03/31 13:40:39;;;;;;;;;;;;;;;;;;107161;1250;64085;-80
2024/03/31 13:43:06;;;;;;;;;;;;;;;;;;107167;1251;62129;-81
2024/03/31 13:45:32;;;;;;;;;;;;;;;;;;107219;1250;62134;-79
2024/03/31 13:47:58;;;;;;;;;;;;;;;;;;107175;1253;62164;-79
2024/03/31 13:50:24;;;;;;;;;;;;;;;;;;107143;1250;59965;-81
2024/03/31 13:52:50;;;;;;;;;;;;;;;;;;107228;1253;62137;-79
2024/03/31 13:55:16;;;;;;;;;;;;;;;;;;107215;1251;62015;-79
2024/03/31 13:57:42;;;;;;;;;;;;;;;;;;107195;1251;62134;-80
2024/03/31 14:00:09;;;;;;;;;;;;;;;;;;107252;1253;63414;-81
2024/03/31 14:02:35;;;;;;;;;;;;;;;;;;107259;1254;62021;-80
2024/03/31 14:05:01;;;;;;;;;;;;;;;;;;107259;1250;62137;-79
2024/03/31 14:07:27;;;;;;;;;;;;;;;;;;107291;1251;63215;-80
2024/03/31 14:09:53;;;;;;;;;;;;;;;;;;107275;1249;60621;-79
2024/03/31 14:12:20;;;;;;;;;;;;;;;;;;107265;1254;62034;-81
2024/03/31 14:14:46;;;;;;;;;;;;;;;;;;107296;1253;62525;-79
2024/03/31 14:17:12;;;;;;;;;;;;;;;;;;107287;1251;62118;-81
2024/03/31 14:19:38;;;;;;;;;;;;;;;;;;107224;1250;62017;-81
2024/03/31 14:22:04;;;;;;;;;;;;;;;;;;107191;1251;62143;-80
2024/03/31 14:24:30;;;;;;;;;;;;;;;;;;107249;1250;61963;-79
2024/03/31 14:26:56;;;;;;;;;;;;;;;;;;107206;1251;62012;-81
2024/03/31 14:29:22;;;;;;;;;;;;;;;;;;107217;1251;62140;-79
2024/03/31 14:31:49;;;;;;;;;;;;;;;;;;107229;1250;62606;-81
2024/03/31 14:34:15;;;;;;;;;;;;;;;;;;108290;1250;62023;-79
2024/03/31 14:36:41;;;;;;;;;;;;;;;;;;109716;1249;62679;-81
2024/03/31 14:39:07;;;;;;;;;;;;;;;;;;109026;1250;59667;-79
2024/03/31 14:41:33;;;;;;;;;;;;;;;;;;107225;1251;62501;-81
2024/03/31 14:43:59;;;;;;;;;;;;;;;;;;107200;1251;62214;-79
2024/03/31 14:46:25;;;;;;;;;;;;;;;;;;107214;1250;60057;-81
2024/03/31 14:48:52;;;;;;;;;;;;;;;;;;107183;1250;62038;-79
2024/03/31 14:51:18;;;;;;;;;;;;;;;;;;107221;1253;62031;-79
2024/03/31 14:53:44;;;;;;;;;;;;;;;;;;107819;1249;62256;-80
2024/03/31 14:56:10;;;;;;;;;;;;;;;;;;109690;1250;59702;-81
2024/03/31 14:58:37;;;;;;;;;;;;;;;;;;109680;1249;59635;-81
2024/03/31 15:01:03;;;;;;;;;;;;;;;;;;107558;1250;60237;-81
2024/03/31 15:03:29;;;;;;;;;;;;;;;;;;107451;1254;62103;-80
2024/03/31 15:05:55;;;;;;;;;;;;;;;;;;109745;1249;59625;-81
2024/03/31 15:08:21;;;;;;;;;;;;;;;;;;109684;1249;60107;-81
2024/03/31 15:10:47;;;;;;;;;;;;;;;;;;109704;1249;59597;-81
2024/03/31 15:13:13;;;;;;;;;;;;;;;;;;109712;1249;59877;-79
2024/03/31 15:15:40;;;;;;;;;;;;;;;;;;109720;1249;59621;-79
2024/03/31 15:18:06;;;;;;;;;;;;;;;;;;109672;1249;60076;-80
2024/03/31 15:20:32;;;;;;;;;;;;;;;;;;109726;1249;59636;-80
2024/03/31 15:22:58;;;;;;;;;;;;;;;;;;109717;1249;59878;-80
2024/03/31 15:25:24;;;;;;;;;;;;;;;;;;109715;1249;59676;-82
2024/03/31 15:27:50;;;;;;;;;;;;;;;;;;109673;1250;59675;-79
2024/03/31 15:30:16;;;;;;;;;;;;;;;;;;109239;1250;60702;-80
2024/03/31 15:32:43;;;;;;;;;;;;;;;;;;107197;1250;62073;-81
2024/03/31 15:35:09;;;;;;;;;;;;;;;;;;107225;1249;62148;-78
2024/03/31 15:37:35;;;;;;;;;;;;;;;;;;107257;1250;62063;-79
2024/03/31 15:40:01;;;;;;;;;;;;;;;;;;107186;1249;62121;-81
2024/03/31 15:42:27;;;;;;;;;;;;;;;;;;107245;1250;62061;-82
2024/03/31 15:44:54;;;;;;;;;;;;;;;;;;107243;1249;62067;-81
2024/03/31 15:47:20;;;;;;;;;;;;;;;;;;107229;1250;62125;-79
2024/03/31 15:49:46;;;;;;;;;;;;;;;;;;107152;1249;61983;-81
2024/03/31 15:52:13;;;;;;;;;;;;;;;;;;107119;1254;61915;-79
2024/03/31 15:54:39;;;;;;;;;;;;;;;;;;107211;1254;60334;-79
2024/03/31 15:57:05;;;;;;;;;;;;;;;;;;107230;1250;63325;-79
2024/03/31 15:59:32;;;;;;;;;;;;;;;;;;107194;1250;62155;-79
2024/03/31 16:01:58;;;;;;;;;;;;;;;;;;107237;1253;62096;-79
2024/03/31 16:04:25;;;;;;;;;;;;;;;;;;106520;1250;62122;-81
2024/03/31 16:06:51;;;;;;;;;;;;;;;;;;107217;1251;62057;-79
2024/03/31 16:09:18;;;;;;;;;;;;;;;;;;106514;1253;62133;-79
2024/03/31 16:11:44;;;;;;;;;;;;;;;;;;106629;1250;62047;-79
2024/03/31 16:14:10;;;;;;;;;;;;;;;;;;106560;1250;62151;-79
2024/03/31 16:16:36;;;;;;;;;;;;;;;;;;106574;1251;62218;-79
2024/03/31 16:19:03;;;;;;;;;;;;;;;;;;106585;1249;62128;-79
2024/03/31 16:21:29;;;;;;;;;;;;;;;;;;106584;1251;62029;-80